Time;durP1;ratioP1;P1;durP2;ratioP2;P2;SDS_P1;SDS_P2;PMS_P1;PMS_P2;Temp;Humidity;BMP_temperature;BMP_pressure;BME280_temperature;BME280_humidity;BME280_pressure;Samples;Min_cycle;Max_cycle;Signal;HPM_P1;HPM_P2
2023/03/10 00:00:33;;;;;;;23.58;7.18;;;10.90;99.90;;;;;;5001575;28;20122;-84
2023/03/10 00:02:59;;;;;;;26.40;7.25;;;10.90;99.90;;;;;;5006321;28;20021;-84
2023/03/10 00:05:24;;;;;;;21.48;6.55;;;11.00;99.90;;;;;;5018262;28;20408;-83
2023/03/10 00:07:50;;;;;;;21.63;6.53;;;11.00;99.90;;;;;;5001016;28;20021;-84
2023/03/10 00:10:17;;;;;;;21.08;5.97;;;11.10;99.90;;;;;;5001184;28;20380;-82
2023/03/10 00:12:42;;;;;;;18.27;5.68;;;11.10;99.90;;;;;;5006922;28;20344;-83
2023/03/10 00:15:09;;;;;;;18.83;5.80;;;11.20;99.90;;;;;;4998341;28;20628;-84
2023/03/10 00:17:34;;;;;;;13.32;5.47;;;11.20;99.90;;;;;;5015920;28;20105;-83
2023/03/10 00:20:00;;;;;;;13.77;8.32;;;11.20;99.90;;;;;;5001882;28;20040;-83
2023/03/10 00:22:26;;;;;;;12.75;6.95;;;10.70;99.90;;;;;;4997729;28;20026;-84
2023/03/10 00:24:51;;;;;;;9.38;7.00;;;10.10;99.90;;;;;;5006072;28;20079;-83
2023/03/10 00:27:17;;;;;;;8.60;6.63;;;9.60;99.90;;;;;;5015687;28;20263;-83
2023/03/10 00:29:43;;;;;;;12.10;7.18;;;9.10;99.90;;;;;;5014662;28;20470;-83
2023/03/10 00:32:10;;;;;;;11.13;7.05;;;8.80;99.90;;;;;;5004066;28;20122;-84
2023/03/10 00:34:38;;;;;;;11.35;8.02;;;8.80;99.90;;;;;;4995297;28;20033;-84
2023/03/10 00:37:03;;;;;;;10.52;7.38;;;8.70;99.90;;;;;;5014084;28;20021;-84
2023/03/10 00:39:29;;;;;;;10.35;7.07;;;8.60;99.90;;;;;;5004444;28;20028;-84
2023/03/10 00:41:55;;;;;;;14.40;8.13;;;8.60;99.90;;;;;;5012004;28;20082;-84
2023/03/10 00:44:23;;;;;;;12.88;8.35;;;8.50;99.90;;;;;;5017578;28;20034;-84
2023/03/10 00:46:48;;;;;;;10.88;7.85;;;8.50;99.90;;;;;;5015124;28;20104;-84
2023/03/10 00:49:15;;;;;;;13.70;8.13;;;8.50;99.90;;;;;;5004992;28;20608;-84
2023/03/10 00:51:41;;;;;;;11.60;7.93;;;8.50;99.90;;;;;;5017696;28;20168;-84
2023/03/10 00:54:09;;;;;;;11.40;8.32;;;8.50;99.90;;;;;;5006328;28;20132;-84
2023/03/10 00:56:34;;;;;;;12.90;8.68;;;8.50;99.90;;;;;;5017548;28;20808;-84
2023/03/10 00:59:00;;;;;;;12.18;7.55;;;8.40;99.90;;;;;;5001655;28;20044;-84
2023/03/10 01:01:29;;;;;;;12.10;8.57;;;8.40;99.90;;;;;;5015683;28;20284;-83
2023/03/10 01:03:58;;;;;;;12.00;8.15;;;8.40;99.90;;;;;;5013744;28;20060;-85
2023/03/10 01:06:24;;;;;;;12.57;8.07;;;8.20;99.90;;;;;;5007005;28;20072;-81
2023/03/10 01:08:50;;;;;;;11.68;7.90;;;8.30;99.90;;;;;;5026747;28;20054;-81
2023/03/10 01:11:19;;;;;;;11.05;7.88;;;8.30;99.90;;;;;;5016791;28;20095;-80
2023/03/10 01:13:45;;;;;;;11.13;7.80;;;8.20;99.90;;;;;;5016011;28;20511;-80
2023/03/10 01:16:11;;;;;;;12.73;8.30;;;8.20;99.90;;;;;;5012889;28;20030;-80
2023/03/10 01:18:37;;;;;;;12.27;8.13;;;8.20;99.90;;;;;;4997356;28;20063;-81
2023/03/10 01:21:04;;;;;;;8.93;6.47;;;8.10;99.90;;;;;;4999775;28;20121;-80
2023/03/10 01:23:30;;;;;;;11.35;8.13;;;8.00;99.90;;;;;;5018175;28;20022;-82
2023/03/10 01:25:55;;;;;;;10.18;7.45;;;8.00;99.90;;;;;;5013788;28;20119;-80
2023/03/10 01:28:21;;;;;;;10.00;7.32;;;7.90;99.90;;;;;;5014358;28;20405;-81
2023/03/10 01:30:47;;;;;;;10.40;7.43;;;7.90;99.90;;;;;;4995002;28;20026;-80
2023/03/10 01:33:14;;;;;;;9.85;7.97;;;8.00;99.90;;;;;;5013300;28;20500;-81
2023/03/10 01:35:41;;;;;;;11.90;7.28;;;8.00;99.90;;;;;;5011353;28;20026;-80
2023/03/10 01:38:08;;;;;;;8.30;6.68;;;8.00;99.90;;;;;;4996815;28;20137;-80
2023/03/10 01:40:35;;;;;;;9.30;6.72;;;8.00;99.90;;;;;;5010330;28;20025;-81
2023/03/10 01:43:28;;;;;;;8.75;6.38;;;7.80;99.90;;;;;;4999012;28;20026;-80
2023/03/10 01:46:00;;;;;;;8.00;6.53;;;7.70;99.90;;;;;;4996133;28;20283;-80
2023/03/10 01:48:29;;;;;;;9.48;6.70;;;7.70;99.90;;;;;;5003511;28;20526;-81
2023/03/10 01:50:55;;;;;;;7.78;6.75;;;7.70;99.90;;;;;;4997826;28;20025;-81
2023/03/10 01:53:23;;;;;;;9.77;7.45;;;7.70;99.90;;;;;;4999065;28;20048;-80
2023/03/10 01:55:54;;;;;;;8.68;6.68;;;7.80;99.90;;;;;;4990669;28;20034;-80
2023/03/10 01:58:23;;;;;;;8.68;6.47;;;7.80;99.90;;;;;;5012652;28;20172;-80
2023/03/10 02:00:52;;;;;;;8.07;6.43;;;7.80;99.90;;;;;;5012635;28;20330;-81
2023/03/10 02:03:29;;;;;;;10.18;7.05;;;7.90;99.90;;;;;;5013578;28;20033;-81
2023/03/10 02:06:08;;;;;;;9.00;7.05;;;7.90;99.90;;;;;;5003499;28;20359;-80
2023/03/10 02:08:39;;;;;;;7.40;6.25;;;7.90;99.90;;;;;;5013242;28;20037;-80
2023/03/10 02:11:05;;;;;;;7.28;6.45;;;8.00;99.90;;;;;;5013573;28;20068;-80
2023/03/10 02:13:31;;;;;;;8.82;6.82;;;8.00;99.90;;;;;;5012749;28;20125;-80
2023/03/10 02:15:56;;;;;;;10.57;6.55;;;8.00;99.90;;;;;;5015900;28;20026;-81
2023/03/10 02:18:23;;;;;;;7.25;6.22;;;8.10;99.90;;;;;;5014817;28;20308;-81
2023/03/10 02:21:07;;;;;;;8.18;6.40;;;8.10;99.90;;;;;;5003119;28;20029;-81
2023/03/10 02:23:39;;;;;;;8.65;7.03;;;8.10;99.90;;;;;;5001575;28;20098;-81
2023/03/10 02:26:29;;;;;;;8.82;6.82;;;8.10;99.90;;;;;;4998612;28;20109;-80
2023/03/10 02:28:57;;;;;;;9.75;7.05;;;8.10;99.90;;;;;;4997164;28;20056;-80
2023/03/10 02:31:23;;;;;;;9.18;6.15;;;8.20;99.90;;;;;;4998571;28;20025;-81
2023/03/10 02:33:50;;;;;;;8.32;6.68;;;8.20;99.90;;;;;;5002199;28;20060;-83
2023/03/10 02:36:23;;;;;;;11.07;6.75;;;8.10;99.90;;;;;;5004698;28;20057;-84
2023/03/10 02:38:49;;;;;;;9.02;7.45;;;8.10;99.90;;;;;;4994794;28;20065;-80
2023/03/10 02:41:35;;;;;;;10.93;7.32;;;8.10;99.90;;;;;;5013097;28;20076;-80
2023/03/10 02:44:04;;;;;;;14.30;8.00;;;8.10;99.90;;;;;;5011736;28;20039;-81
2023/03/10 02:46:30;;;;;;;11.25;7.07;;;8.10;99.90;;;;;;4998224;28;20029;-82
2023/03/10 02:49:01;;;;;;;9.38;7.20;;;8.10;99.90;;;;;;4995310;28;20049;-79
2023/03/10 02:51:34;;;;;;;10.30;7.25;;;8.10;99.90;;;;;;5012381;28;20017;-81
2023/03/10 02:54:01;;;;;;;10.93;7.90;;;8.10;99.90;;;;;;5014005;28;20068;-80
2023/03/10 02:56:28;;;;;;;15.43;8.07;;;8.10;99.90;;;;;;5023972;28;20394;-81
2023/03/10 02:58:53;;;;;;;11.38;8.02;;;8.00;99.90;;;;;;5005040;28;20022;-81
2023/03/10 03:01:19;;;;;;;10.35;8.10;;;8.10;99.90;;;;;;4995039;28;20548;-82
2023/03/10 03:03:45;;;;;;;14.75;8.70;;;8.00;99.90;;;;;;5014146;28;20023;-80
2023/03/10 03:06:13;;;;;;;12.98;8.15;;;8.10;99.90;;;;;;4994088;28;20844;-81
2023/03/10 03:08:40;;;;;;;11.57;8.45;;;8.10;99.90;;;;;;5011084;28;20175;-81
2023/03/10 03:11:05;;;;;;;13.57;8.38;;;8.10;99.90;;;;;;4999207;28;20072;-81
2023/03/10 03:13:31;;;;;;;11.75;8.25;;;8.10;99.90;;;;;;5013079;28;20066;-81
2023/03/10 03:15:57;;;;;;;13.30;9.02;;;8.00;99.90;;;;;;4994940;28;20029;-80
2023/03/10 03:18:22;;;;;;;13.18;8.85;;;8.00;99.90;;;;;;4998521;28;20021;-80
2023/03/10 03:20:48;;;;;;;15.65;8.35;;;8.00;99.90;;;;;;4995791;28;20515;-80
2023/03/10 03:23:13;;;;;;;13.13;8.85;;;8.00;99.90;;;;;;5010327;28;20033;-81
2023/03/10 03:25:40;;;;;;;13.30;9.38;;;8.00;99.90;;;;;;5000069;28;20033;-80
2023/03/10 03:28:10;;;;;;;12.48;8.57;;;8.00;99.90;;;;;;4990695;28;20076;-82
2023/03/10 03:30:36;;;;;;;13.43;9.07;;;8.10;99.90;;;;;;5014043;28;20037;-83
2023/03/10 03:33:04;;;;;;;12.45;8.15;;;8.10;99.90;;;;;;4991634;28;20038;-81
2023/03/10 03:35:33;;;;;;;13.32;9.30;;;8.20;99.90;;;;;;5013003;28;20073;-80
2023/03/10 03:37:59;;;;;;;11.93;8.75;;;8.20;99.90;;;;;;5001434;28;20021;-82
2023/03/10 03:40:29;;;;;;;12.98;8.57;;;8.20;99.90;;;;;;5006119;28;20034;-80
2023/03/10 03:42:55;;;;;;;14.13;9.55;;;8.20;99.90;;;;;;5005735;28;20545;-82
2023/03/10 03:45:23;;;;;;;12.52;8.40;;;8.20;99.90;;;;;;5001407;28;20108;-83
2023/03/10 03:47:51;;;;;;;13.90;8.80;;;8.20;99.90;;;;;;5016321;28;20026;-80
2023/03/10 03:50:19;;;;;;;11.73;9.13;;;8.30;99.90;;;;;;5016165;28;20117;-80
2023/03/10 03:52:45;;;;;;;12.52;9.30;;;8.30;99.90;;;;;;5005195;28;20044;-80
2023/03/10 03:55:13;;;;;;;15.35;10.40;;;8.40;99.90;;;;;;5019311;28;20033;-84
2023/03/10 03:57:39;;;;;;;12.07;9.07;;;8.40;99.90;;;;;;5020040;28;20040;-79
2023/03/10 04:00:11;;;;;;;13.52;9.15;;;8.40;99.90;;;;;;5001664;28;20048;-80
2023/03/10 04:02:37;;;;;;;14.55;9.20;;;8.50;99.90;;;;;;5016428;28;20109;-80
2023/03/10 04:05:03;;;;;;;12.75;8.95;;;8.60;99.90;;;;;;5002909;28;20117;-82
2023/03/10 04:07:29;;;;;;;11.00;8.70;;;8.60;99.90;;;;;;5001936;28;20408;-82
2023/03/10 04:09:57;;;;;;;13.13;9.13;;;8.70;99.90;;;;;;4999364;28;21256;-80
2023/03/10 04:12:24;;;;;;;12.93;8.90;;;8.70;99.90;;;;;;5004047;28;20041;-80
2023/03/10 04:14:50;;;;;;;13.52;9.23;;;8.70;99.90;;;;;;5001895;28;20029;-80
2023/03/10 04:17:18;;;;;;;10.80;9.10;;;8.70;99.90;;;;;;5000586;28;20029;-80
2023/03/10 04:19:44;;;;;;;12.00;8.95;;;8.80;99.90;;;;;;5008059;28;20014;-80
2023/03/10 04:22:12;;;;;;;12.43;9.05;;;8.80;99.90;;;;;;5006379;28;20104;-80
2023/03/10 04:24:38;;;;;;;11.02;8.88;;;8.90;99.90;;;;;;5018744;28;20021;-80
2023/03/10 04:27:04;;;;;;;12.13;9.07;;;8.90;99.90;;;;;;4994778;28;20105;-81
2023/03/10 04:29:30;;;;;;;14.75;9.15;;;8.80;99.90;;;;;;5009594;28;20257;-80
2023/03/10 04:31:56;;;;;;;12.60;9.15;;;8.80;99.90;;;;;;5005551;28;20078;-80
2023/03/10 04:34:21;;;;;;;16.75;9.38;;;8.80;99.90;;;;;;5023120;28;20029;-80
2023/03/10 04:36:47;;;;;;;12.77;8.77;;;8.80;99.90;;;;;;5006581;28;20021;-80
2023/03/10 04:39:14;;;;;;;13.00;8.88;;;8.80;99.90;;;;;;5008953;28;20400;-80
2023/03/10 04:41:39;;;;;;;13.15;8.70;;;8.70;99.90;;;;;;5018210;28;20021;-80
2023/03/10 04:44:05;;;;;;;15.18;10.07;;;8.70;99.90;;;;;;5028607;28;20037;-80
2023/03/10 04:46:30;;;;;;;12.98;8.85;;;8.70;99.90;;;;;;5013143;28;20079;-80
2023/03/10 04:48:56;;;;;;;13.60;9.32;;;8.70;99.90;;;;;;4997367;28;20592;-80
2023/03/10 04:51:25;;;;;;;13.63;9.35;;;8.80;99.90;;;;;;5005550;28;20017;-80
2023/03/10 04:53:50;;;;;;;13.55;9.73;;;8.70;99.90;;;;;;5013440;28;20383;-80
2023/03/10 04:56:16;;;;;;;17.98;10.65;;;8.70;99.90;;;;;;4997919;28;20036;-80
2023/03/10 04:58:42;;;;;;;16.73;10.45;;;8.70;99.90;;;;;;4998584;28;20477;-80
2023/03/10 05:01:09;;;;;;;17.05;11.13;;;8.70;99.90;;;;;;5011365;28;20022;-79
2023/03/10 05:03:35;;;;;;;13.57;9.93;;;8.80;99.90;;;;;;4999891;28;20022;-80
2023/03/10 05:06:01;;;;;;;14.93;9.77;;;8.70;99.90;;;;;;5016897;28;20028;-80
2023/03/10 05:08:26;;;;;;;16.02;10.05;;;8.70;99.90;;;;;;5010298;28;20026;-82
2023/03/10 05:10:54;;;;;;;16.30;10.00;;;8.70;99.90;;;;;;5015633;28;20026;-80
2023/03/10 05:13:20;;;;;;;17.05;9.68;;;8.70;99.90;;;;;;5020107;28;20058;-81
2023/03/10 05:15:45;;;;;;;18.35;10.88;;;8.70;99.90;;;;;;5003521;28;20065;-81
2023/03/10 05:18:12;;;;;;;18.38;9.63;;;8.70;99.90;;;;;;5001576;28;20565;-80
2023/03/10 05:20:38;;;;;;;16.48;9.68;;;8.60;99.90;;;;;;4999602;28;20474;-80
2023/03/10 05:23:04;;;;;;;12.82;8.95;;;8.60;99.90;;;;;;5000903;28;20022;-80
2023/03/10 05:25:29;;;;;;;18.55;9.13;;;8.50;99.90;;;;;;5001666;28;20029;-80
2023/03/10 05:27:55;;;;;;;14.95;8.98;;;8.50;99.90;;;;;;4999151;28;20116;-80
2023/03/10 05:30:21;;;;;;;13.32;8.45;;;8.50;99.90;;;;;;5001204;28;20116;-80
2023/03/10 05:32:46;;;;;;;12.35;7.10;;;8.60;99.90;;;;;;5014309;28;20040;-81
2023/03/10 05:35:13;;;;;;;11.20;6.90;;;8.60;99.90;;;;;;5014106;28;20559;-80
2023/03/10 05:37:39;;;;;;;11.15;6.90;;;8.70;99.90;;;;;;4997673;28;20675;-80
2023/03/10 05:40:07;;;;;;;12.73;7.45;;;8.80;99.90;;;;;;5001948;28;20045;-80
2023/03/10 05:42:35;;;;;;;12.48;7.90;;;8.80;99.90;;;;;;4996701;28;20034;-80
2023/03/10 05:45:04;;;;;;;14.32;8.93;;;8.80;99.90;;;;;;5017348;28;20503;-80
2023/03/10 05:47:32;;;;;;;12.95;8.50;;;8.70;99.90;;;;;;4996592;28;20022;-79
2023/03/10 05:49:58;;;;;;;13.15;9.43;;;8.60;99.90;;;;;;5013124;28;20148;-80
2023/03/10 05:52:24;;;;;;;16.38;8.95;;;8.50;99.90;;;;;;5000121;28;20060;-80
2023/03/10 05:54:50;;;;;;;14.50;9.48;;;8.40;99.90;;;;;;4994863;28;20501;-79
2023/03/10 05:57:16;;;;;;;13.80;9.00;;;8.20;99.90;;;;;;5003506;28;20020;-80
2023/03/10 05:59:42;;;;;;;12.98;9.00;;;8.30;99.90;;;;;;4999624;28;20492;-80
2023/03/10 06:02:07;;;;;;;13.57;8.18;;;8.20;99.90;;;;;;5013215;28;20565;-80
2023/03/10 06:04:33;;;;;;;11.93;8.85;;;8.30;99.90;;;;;;5015345;28;20076;-80
2023/03/10 06:06:59;;;;;;;13.30;8.98;;;8.30;99.90;;;;;;4998731;28;20056;-81
2023/03/10 06:09:30;;;;;;;11.93;8.95;;;8.20;99.90;;;;;;5013670;28;20044;-79
2023/03/10 06:11:56;;;;;;;14.13;9.15;;;8.20;99.90;;;;;;5014165;28;20034;-80
2023/03/10 06:14:22;;;;;;;16.77;10.18;;;8.20;99.90;;;;;;5020259;28;20473;-80
2023/03/10 06:16:50;;;;;;;15.65;9.23;;;8.20;99.90;;;;;;5004553;28;20374;-80
2023/03/10 06:19:20;;;;;;;18.50;9.77;;;8.20;99.90;;;;;;5014764;28;20027;-80
2023/03/10 06:21:47;;;;;;;15.90;9.75;;;8.10;99.90;;;;;;4998429;28;20125;-80
2023/03/10 06:24:13;;;;;;;14.85;9.10;;;8.10;99.90;;;;;;5017531;28;20053;-80
2023/03/10 06:26:38;;;;;;;16.30;9.75;;;8.10;99.90;;;;;;5016911;28;20474;-80
2023/03/10 06:29:05;;;;;;;16.65;10.73;;;8.10;99.90;;;;;;4994528;28;20021;-80
2023/03/10 06:31:31;;;;;;;14.38;9.98;;;8.10;99.90;;;;;;5002200;28;20081;-81
2023/03/10 06:33:58;;;;;;;22.13;10.52;;;8.10;99.90;;;;;;5005599;28;20469;-80
2023/03/10 06:36:25;;;;;;;21.00;10.15;;;8.00;99.90;;;;;;5005153;28;20044;-80
2023/03/10 06:38:52;;;;;;;16.83;10.77;;;8.10;99.90;;;;;;4999722;28;20018;-82
2023/03/10 06:41:19;;;;;;;23.55;10.93;;;8.00;99.90;;;;;;4993775;28;20014;-78
2023/03/10 06:43:45;;;;;;;18.60;11.77;;;8.00;99.90;;;;;;5014480;28;20465;-78
2023/03/10 06:46:11;;;;;;;23.63;12.70;;;8.00;99.90;;;;;;4999271;28;20887;-78
2023/03/10 06:48:38;;;;;;;19.15;11.32;;;8.00;99.90;;;;;;5013279;28;21459;-80
2023/03/10 06:51:06;;;;;;;25.58;12.73;;;8.00;99.90;;;;;;5011770;28;20025;-81
2023/03/10 06:53:32;;;;;;;26.45;12.45;;;8.10;99.90;;;;;;5011946;28;20143;-78
2023/03/10 06:56:00;;;;;;;21.85;12.13;;;8.20;99.90;;;;;;5014005;28;20136;-78
2023/03/10 06:58:25;;;;;;;25.48;12.73;;;8.20;99.90;;;;;;4996196;28;20117;-78
2023/03/10 07:00:51;;;;;;;26.98;12.85;;;8.20;99.90;;;;;;5001372;28;20136;-78
2023/03/10 07:03:17;;;;;;;24.40;12.55;;;8.30;99.90;;;;;;5017971;28;20470;-81
2023/03/10 07:05:43;;;;;;;23.88;12.00;;;8.30;99.90;;;;;;5000192;28;20026;-80
2023/03/10 07:08:08;;;;;;;21.50;12.55;;;8.30;99.90;;;;;;5015603;28;20408;-78
2023/03/10 07:10:34;;;;;;;20.13;11.98;;;8.40;99.90;;;;;;5001610;28;20052;-80
2023/03/10 07:13:01;;;;;;;24.23;13.43;;;8.40;99.90;;;;;;5000707;28;20037;-78
2023/03/10 07:15:27;;;;;;;23.50;12.90;;;8.40;99.90;;;;;;5010312;28;20033;-80
2023/03/10 07:17:55;;;;;;;19.50;11.73;;;8.50;99.90;;;;;;4998803;28;20045;-82
2023/03/10 07:20:21;;;;;;;22.65;12.40;;;8.50;99.90;;;;;;5012465;28;20029;-78
2023/03/10 07:22:50;;;;;;;21.40;12.38;;;8.50;99.90;;;;;;5012345;28;20091;-81
2023/03/10 07:25:16;;;;;;;23.88;13.13;;;8.40;99.90;;;;;;5013515;28;20120;-80
2023/03/10 07:27:41;;;;;;;25.73;12.95;;;8.50;99.90;;;;;;5012191;28;20097;-81
2023/03/10 07:30:07;;;;;;;24.50;12.93;;;8.50;99.90;;;;;;5000879;28;20708;-80
2023/03/10 07:32:33;;;;;;;19.60;12.20;;;8.50;99.90;;;;;;5011995;28;20106;-81
2023/03/10 07:35:02;;;;;;;21.77;12.70;;;8.50;99.90;;;;;;4999557;28;20489;-79
2023/03/10 07:37:28;;;;;;;23.33;11.90;;;8.50;99.90;;;;;;5013996;28;20025;-80
2023/03/10 07:39:54;;;;;;;21.05;12.60;;;8.40;99.90;;;;;;5004675;28;20037;-80
2023/03/10 07:42:20;;;;;;;20.65;12.45;;;8.40;99.90;;;;;;5017091;28;20109;-80
2023/03/10 07:44:45;;;;;;;26.23;12.15;;;8.50;99.90;;;;;;5001295;28;20140;-80
2023/03/10 07:47:11;;;;;;;19.50;10.70;;;8.50;99.90;;;;;;5002500;28;20045;-80
2023/03/10 07:49:37;;;;;;;20.70;11.88;;;8.40;99.90;;;;;;4999186;28;20036;-80
2023/03/10 07:52:03;;;;;;;19.95;12.23;;;8.40;99.90;;;;;;4999218;28;20036;-79
2023/03/10 07:54:28;;;;;;;21.13;11.90;;;8.40;99.90;;;;;;5009631;28;20026;-78
2023/03/10 07:56:54;;;;;;;18.10;11.15;;;8.40;99.90;;;;;;5020304;28;20041;-81
2023/03/10 07:59:20;;;;;;;16.98;11.20;;;8.50;99.90;;;;;;5021719;28;20073;-80
2023/03/10 08:01:45;;;;;;;16.88;10.93;;;8.50;99.90;;;;;;5007938;28;20079;-80
2023/03/10 08:04:11;;;;;;;23.83;11.23;;;8.60;99.90;;;;;;5013181;28;20109;-80
2023/03/10 08:06:40;;;;;;;21.13;11.20;;;8.60;99.90;;;;;;5015577;28;20025;-81
2023/03/10 08:09:06;;;;;;;23.23;12.52;;;8.70;99.90;;;;;;4994436;28;20478;-79
2023/03/10 08:11:32;;;;;;;20.20;10.85;;;8.70;99.90;;;;;;5012851;28;20025;-80
2023/03/10 08:13:57;;;;;;;22.00;12.30;;;8.70;99.90;;;;;;4996778;28;20409;-80
2023/03/10 08:16:23;;;;;;;19.15;12.18;;;8.70;99.90;;;;;;4997230;28;20037;-80
2023/03/10 08:18:51;;;;;;;18.23;10.80;;;8.80;99.90;;;;;;5013135;28;20037;-81
2023/03/10 08:21:16;;;;;;;23.08;12.40;;;8.90;99.90;;;;;;5014265;28;20510;-81
2023/03/10 08:23:42;;;;;;;19.20;10.63;;;8.90;99.90;;;;;;5005290;28;20017;-81
2023/03/10 08:26:12;;;;;;;18.85;11.30;;;9.00;99.90;;;;;;5013235;28;20096;-83
2023/03/10 08:28:38;;;;;;;21.30;10.27;;;9.00;99.90;;;;;;5019262;28;20044;-79
2023/03/10 08:31:14;;;;;;;15.98;9.88;;;8.90;99.90;;;;;;5016465;28;20034;-80
2023/03/10 08:33:40;;;;;;;15.60;9.85;;;8.90;99.90;;;;;;5006054;28;20038;-81
2023/03/10 08:36:11;;;;;;;17.05;10.30;;;8.90;99.90;;;;;;5007710;28;20536;-80
2023/03/10 08:38:40;;;;;;;16.77;9.57;;;9.00;99.90;;;;;;5020018;28;20048;-81
2023/03/10 08:41:32;;;;;;;14.25;9.77;;;9.00;99.90;;;;;;5018296;28;20498;-79
2023/03/10 08:44:00;;;;;;;13.13;8.98;;;9.00;99.90;;;;;;5021122;28;20044;-83
2023/03/10 08:46:30;;;;;;;13.80;9.02;;;8.90;99.90;;;;;;5008109;28;20034;-78
2023/03/10 08:48:57;;;;;;;17.42;9.60;;;8.90;99.90;;;;;;5018954;28;20046;-77
2023/03/10 08:51:24;;;;;;;14.95;9.40;;;9.00;99.90;;;;;;5018729;28;20010;-77
2023/03/10 08:53:50;;;;;;;15.18;9.15;;;9.10;99.90;;;;;;5016910;28;20064;-82
2023/03/10 08:56:18;;;;;;;15.15;9.40;;;9.30;99.90;;;;;;5013324;28;20044;-82
2023/03/10 08:58:44;;;;;;;16.42;10.57;;;9.40;99.90;;;;;;5008105;28;20432;-81
2023/03/10 09:01:11;;;;;;;18.05;9.30;;;9.60;99.90;;;;;;5010710;28;20064;-81
2023/03/10 09:03:39;;;;;;;12.00;8.75;;;9.80;99.90;;;;;;5022480;28;20102;-82
2023/03/10 09:06:06;;;;;;;12.80;8.88;;;9.90;99.90;;;;;;5003029;28;20116;-83
2023/03/10 09:08:32;;;;;;;12.27;8.75;;;9.90;99.90;;;;;;5006063;28;20050;-81
2023/03/10 09:10:57;;;;;;;12.35;8.05;;;9.90;99.90;;;;;;5002032;28;20084;-81
2023/03/10 09:13:23;;;;;;;16.02;8.98;;;10.00;99.90;;;;;;5017488;28;20029;-80
2023/03/10 09:15:49;;;;;;;16.70;8.75;;;10.10;99.90;;;;;;5019401;28;20048;-83
2023/03/10 09:18:16;;;;;;;16.40;8.70;;;10.40;99.90;;;;;;5001756;28;20072;-83
2023/03/10 09:20:42;;;;;;;21.27;11.85;;;10.50;99.90;;;;;;5017961;28;20018;-83
2023/03/10 09:23:10;;;;;;;15.88;8.50;;;11.00;99.90;;;;;;5021080;28;20014;-84
2023/03/10 09:25:39;;;;;;;12.25;8.20;;;11.40;99.90;;;;;;5006336;28;20018;-83
2023/03/10 09:28:08;;;;;;;16.80;9.10;;;11.60;99.90;;;;;;5001417;28;20065;-83
2023/03/10 09:30:38;;;;;;;12.63;8.80;;;11.60;99.90;;;;;;5018974;28;20708;-81
2023/03/10 09:33:06;;;;;;;12.35;8.05;;;11.80;99.90;;;;;;5017530;28;20440;-84
2023/03/10 09:35:31;;;;;;;11.00;7.90;;;12.10;99.90;;;;;;4998930;28;20107;-81
2023/03/10 09:37:57;;;;;;;9.40;6.82;;;12.30;99.90;;;;;;5016136;28;20461;-84
2023/03/10 09:40:23;;;;;;;13.38;9.52;;;12.40;99.90;;;;;;5003910;28;20045;-84
2023/03/10 09:43:01;;;;;;;11.55;7.45;;;12.80;99.90;;;;;;5004978;28;20026;-81
2023/03/10 09:45:49;;;;;;;10.45;7.38;;;13.00;99.90;;;;;;5003555;28;20038;-80
2023/03/10 09:48:31;;;;;;;13.65;8.30;;;13.20;99.90;;;;;;5006859;28;20033;-83
2023/03/10 09:50:58;;;;;;;310.33;95.22;;;13.20;99.90;;;;;;5017096;28;20501;-83
2023/03/10 09:53:38;;;;;;;33.83;18.85;;;13.00;99.90;;;;;;5014624;28;20091;-79
2023/03/10 09:56:11;;;;;;;11.70;7.15;;;12.80;99.90;;;;;;5016844;28;20034;-81
2023/03/10 09:58:39;;;;;;;12.70;6.95;;;12.70;99.90;;;;;;5005752;28;20439;-80
2023/03/10 10:01:14;;;;;;;9.05;6.75;;;12.70;99.90;;;;;;5017829;28;20029;-81
2023/03/10 10:03:46;;;;;;;10.07;6.68;;;12.80;99.90;;;;;;4999449;28;20374;-81
2023/03/10 10:06:27;;;;;;;11.82;6.70;;;12.90;99.90;;;;;;5002084;28;20021;-81
2023/03/10 10:08:57;;;;;;;10.27;6.57;;;12.90;99.90;;;;;;4997291;28;20120;-81
2023/03/10 10:11:23;;;;;;;8.82;6.32;;;12.70;99.90;;;;;;5015645;28;20045;-82
2023/03/10 10:13:50;;;;;;;10.05;6.40;;;12.70;99.90;;;;;;5011456;28;20041;-79
2023/03/10 10:16:41;;;;;;;9.75;6.30;;;12.70;99.90;;;;;;5016322;28;20025;-82
2023/03/10 10:19:16;;;;;;;9.80;6.38;;;12.70;99.90;;;;;;5008167;28;20560;-82
2023/03/10 10:22:01;;;;;;;9.27;6.32;;;12.90;99.90;;;;;;5023800;28;20402;-81
2023/03/10 10:24:27;;;;;;;130.75;38.47;;;12.90;99.90;;;;;;4999268;28;20127;-80
2023/03/10 10:26:52;;;;;;;61.75;19.38;;;12.70;99.90;;;;;;4999429;28;20097;-80
2023/03/10 10:29:25;;;;;;;10.20;6.72;;;12.80;99.90;;;;;;5012403;28;20026;-81
2023/03/10 10:32:11;;;;;;;10.65;6.72;;;13.00;99.90;;;;;;5014770;28;20034;-81
2023/03/10 10:34:40;;;;;;;9.15;6.47;;;12.80;99.90;;;;;;4999341;28;20568;-81
2023/03/10 10:37:31;;;;;;;9.13;6.28;;;12.70;99.90;;;;;;4999533;28;20401;-81
2023/03/10 10:40:18;;;;;;;10.05;6.22;;;12.60;99.90;;;;;;4988612;28;20467;-79
2023/03/10 10:42:51;;;;;;;7.00;5.18;;;12.50;99.90;;;;;;5014868;28;20045;-82
2023/03/10 10:45:35;;;;;;;11.05;5.97;;;12.40;99.90;;;;;;5018942;28;20030;-82
2023/03/10 10:48:02;;;;;;;8.93;5.68;;;12.30;99.90;;;;;;5020408;28;20040;-82
2023/03/10 10:50:29;;;;;;;10.20;6.22;;;12.10;99.90;;;;;;5002978;28;20032;-85
2023/03/10 10:53:16;;;;;;;9.45;6.35;;;12.10;99.90;;;;;;4999344;28;20041;-80
2023/03/10 10:55:44;;;;;;;281.60;103.43;;;12.10;99.90;;;;;;4998489;28;20102;-82
2023/03/10 10:59:02;;;;;;;20.92;10.45;;;12.20;99.90;;;;;;5017306;28;20224;-81
2023/03/10 11:01:49;;;;;;;7.03;6.05;;;12.20;99.90;;;;;;4956764;28;20068;-81
2023/03/10 11:04:17;;;;;;;9.15;6.03;;;12.20;99.90;;;;;;5014421;28;20021;-81
2023/03/10 11:06:44;;;;;;;9.25;5.65;;;12.20;99.90;;;;;;5011705;28;20044;-81
2023/03/10 11:09:14;;;;;;;8.25;6.45;;;12.30;99.90;;;;;;5003923;28;20079;-80
2023/03/10 11:12:04;;;;;;;13.48;6.57;;;12.40;99.90;;;;;;5015449;28;20033;-80
2023/03/10 11:15:05;;;;;;;11.13;6.30;;;12.40;99.90;;;;;;5014409;28;20485;-81
2023/03/10 11:17:59;;;;;;;8.82;6.63;;;12.50;99.90;;;;;;5012280;28;20021;-81
2023/03/10 11:20:57;;;;;;;12.23;6.63;;;12.60;99.90;;;;;;4998289;28;20025;-80
2023/03/10 11:23:28;;;;;;;10.15;7.00;;;12.50;99.90;;;;;;5014508;28;20085;-81
2023/03/10 11:26:23;;;;;;;11.45;7.57;;;12.50;99.90;;;;;;5001816;28;20014;-80
2023/03/10 11:29:03;;;;;;;13.13;7.03;;;12.70;99.90;;;;;;5012526;28;20034;-79
2023/03/10 11:31:44;;;;;;;11.85;5.85;;;12.80;99.90;;;;;;4999824;28;20412;-91
2023/03/10 11:34:29;;;;;;;11.35;6.05;;;12.90;99.90;;;;;;5001353;28;20090;-83
2023/03/10 11:36:57;;;;;;;9.18;6.15;;;13.00;99.90;;;;;;5016595;28;20532;-80
2023/03/10 11:40:06;;;;;;;11.00;6.07;;;13.10;99.90;;;;;;5001093;28;20033;-81
2023/03/10 11:42:50;;;;;;;12.02;6.03;;;13.00;99.90;;;;;;5002888;28;20033;-81
2023/03/10 11:45:40;;;;;;;9.70;5.80;;;12.70;99.90;;;;;;4998436;28;20022;-81
2023/03/10 11:48:16;;;;;;;9.55;5.78;;;12.60;99.90;;;;;;5004352;28;20072;-81
2023/03/10 11:50:51;;;;;;;11.57;5.97;;;12.40;99.90;;;;;;5015409;28;20521;-81
2023/03/10 11:53:38;;;;;;;11.15;5.78;;;12.20;99.90;;;;;;5017891;28;20064;-82
2023/03/10 11:56:07;;;;;;;19.40;7.15;;;12.10;99.90;;;;;;5012176;28;20370;-82
2023/03/10 11:58:48;;;;;;;9.48;5.88;;;12.00;99.90;;;;;;5000025;28;20021;-81
2023/03/10 12:01:22;;;;;;;8.70;5.53;;;12.00;99.90;;;;;;5003547;28;20072;-81
2023/03/10 12:04:05;;;;;;;11.68;6.18;;;12.00;99.90;;;;;;5001245;28;20029;-81
2023/03/10 12:06:36;;;;;;;;;;;11.90;99.90;;;;;;5016469;28;20036;-82
2023/03/10 12:09:04;;;;;;;11.18;5.28;;;11.60;99.90;;;;;;5000083;28;19905;-84
2023/03/10 12:11:30;;;;;;;13.88;7.10;;;11.20;99.90;;;;;;5001996;28;20108;-84
2023/03/10 12:14:00;;;;;;;15.68;7.22;;;11.10;99.90;;;;;;5002561;28;20128;-84
2023/03/10 12:16:30;;;;;;;13.98;7.55;;;11.10;99.90;;;;;;4998750;28;20244;-83
2023/03/10 12:18:56;;;;;;;13.55;8.02;;;11.20;99.90;;;;;;5011498;28;20393;-83
2023/03/10 12:21:30;;;;;;;11.05;7.20;;;11.10;99.90;;;;;;5016346;28;20037;-84
2023/03/10 12:24:00;;;;;;;14.15;7.82;;;11.20;99.90;;;;;;5018162;28;20018;-84
2023/03/10 12:26:38;;;;;;;15.77;7.22;;;11.30;99.90;;;;;;5021451;28;20026;-84
2023/03/10 12:29:19;;;;;;;12.50;6.78;;;11.40;99.90;;;;;;5020595;28;20035;-84
2023/03/10 12:31:46;;;;;;;12.68;6.50;;;11.50;99.90;;;;;;5016093;28;20377;-84
2023/03/10 12:34:22;;;;;;;15.25;6.03;;;11.70;99.90;;;;;;4999490;28;20025;-83
2023/03/10 12:37:04;;;;;;;6.32;4.65;;;11.90;99.90;;;;;;5004541;28;20388;-82
2023/03/10 12:39:31;;;;;;;7.63;4.77;;;12.00;99.90;;;;;;5016327;28;20049;-82
2023/03/10 12:42:02;;;;;;;8.40;4.88;;;12.10;99.90;;;;;;5013251;28;20037;-83
2023/03/10 12:44:43;;;;;;;8.02;5.25;;;12.30;99.90;;;;;;4999906;28;20119;-84
2023/03/10 12:47:27;;;;;;;9.45;5.72;;;12.50;99.90;;;;;;5017385;28;20053;-85
2023/03/10 12:50:14;;;;;;;15.68;7.40;;;12.70;99.90;;;;;;4996058;28;20460;-84
2023/03/10 12:52:39;;;;;;;9.45;6.18;;;12.90;99.90;;;;;;5004366;28;20044;-84
2023/03/10 12:55:23;;;;;;;12.15;6.32;;;13.10;99.90;;;;;;5015303;28;20018;-83